sensor_id;sensor_type;location;lat;lon;timestamp;P1;durP1;ratioP1;P2;durP2;ratioP2
80297;SDS011;69599;52.622;9.230;2023-08-07T00:01:28;5.88;;;3.55;;
80297;SDS011;69599;52.622;9.230;2023-08-07T00:03:53;6.95;;;4.32;;
80297;SDS011;69599;52.622;9.230;2023-08-07T00:06:19;8.15;;;4.68;;
80297;SDS011;69599;52.622;9.230;2023-08-07T00:08:44;9.48;;;5.07;;
80297;SDS011;69599;52.622;9.230;2023-08-07T00:11:10;9.30;;;4.70;;
80297;SDS011;69599;52.622;9.230;2023-08-07T00:13:36;8.23;;;4.57;;
80297;SDS011;69599;52.622;9.230;2023-08-07T00:16:01;9.18;;;4.82;;
80297;SDS011;69599;52.622;9.230;2023-08-07T00:18:28;7.88;;;4.60;;
80297;SDS011;69599;52.622;9.230;2023-08-07T00:20:53;7.88;;;4.45;;
80297;SDS011;69599;52.622;9.230;2023-08-07T00:23:19;6.00;;;4.30;;
80297;SDS011;69599;52.622;9.230;2023-08-07T00:25:44;7.15;;;4.60;;
80297;SDS011;69599;52.622;9.230;2023-08-07T00:28:10;6.78;;;4.70;;
80297;SDS011;69599;52.622;9.230;2023-08-07T00:30:35;7.75;;;4.90;;
80297;SDS011;69599;52.622;9.230;2023-08-07T00:33:00;7.18;;;4.60;;
80297;SDS011;69599;52.622;9.230;2023-08-07T00:35:26;7.45;;;5.03;;
80297;SDS011;69599;52.622;9.230;2023-08-07T00:37:51;7.93;;;4.57;;
80297;SDS011;69599;52.622;9.230;2023-08-07T00:40:17;8.82;;;4.10;;
80297;SDS011;69599;52.622;9.230;2023-08-07T00:42:43;7.93;;;4.40;;
80297;SDS011;69599;52.622;9.230;2023-08-07T00:45:09;7.97;;;4.90;;
80297;SDS011;69599;52.622;9.230;2023-08-07T00:47:34;7.05;;;4.68;;
80297;SDS011;69599;52.622;9.230;2023-08-07T00:50:00;7.25;;;5.18;;
80297;SDS011;69599;52.622;9.230;2023-08-07T00:52:26;7.97;;;5.53;;
80297;SDS011;69599;52.622;9.230;2023-08-07T00:54:52;7.72;;;4.85;;
80297;SDS011;69599;52.622;9.230;2023-08-07T00:57:17;7.05;;;4.72;;
80297;SDS011;69599;52.622;9.230;2023-08-07T00:59:47;8.13;;;4.72;;
80297;SDS011;69599;52.622;9.230;2023-08-07T01:02:13;8.98;;;4.70;;
80297;SDS011;69599;52.622;9.230;2023-08-07T01:04:40;8.90;;;4.70;;
80297;SDS011;69599;52.622;9.230;2023-08-07T01:07:05;8.15;;;5.30;;
80297;SDS011;69599;52.622;9.230;2023-08-07T01:09:31;8.05;;;5.40;;
80297;SDS011;69599;52.622;9.230;2023-08-07T01:12:16;8.70;;;5.70;;
80297;SDS011;69599;52.622;9.230;2023-08-07T01:17:15;9.88;;;5.20;;
80297;SDS011;69599;52.622;9.230;2023-08-07T01:19:41;8.57;;;5.40;;
80297;SDS011;69599;52.622;9.230;2023-08-07T01:22:11;9.38;;;5.30;;
80297;SDS011;69599;52.622;9.230;2023-08-07T01:24:38;7.65;;;4.93;;
80297;SDS011;69599;52.622;9.230;2023-08-07T01:27:10;7.88;;;5.40;;
80297;SDS011;69599;52.622;9.230;2023-08-07T01:29:56;6.13;;;4.75;;
80297;SDS011;69599;52.622;9.230;2023-08-07T01:35:03;7.15;;;5.53;;
80297;SDS011;69599;52.622;9.230;2023-08-07T01:37:30;7.10;;;4.45;;
80297;SDS011;69599;52.622;9.230;2023-08-07T01:39:57;8.27;;;4.72;;
80297;SDS011;69599;52.622;9.230;2023-08-07T01:42:24;8.57;;;5.13;;
80297;SDS011;69599;52.622;9.230;2023-08-07T01:44:49;7.53;;;4.63;;
80297;SDS011;69599;52.622;9.230;2023-08-07T01:47:15;9.82;;;5.50;;
80297;SDS011;69599;52.622;9.230;2023-08-07T01:49:40;9.38;;;6.18;;
80297;SDS011;69599;52.622;9.230;2023-08-07T01:52:06;8.00;;;5.60;;
80297;SDS011;69599;52.622;9.230;2023-08-07T01:54:32;6.75;;;4.65;;
80297;SDS011;69599;52.622;9.230;2023-08-07T01:56:58;7.38;;;4.65;;
80297;SDS011;69599;52.622;9.230;2023-08-07T01:59:23;8.90;;;5.20;;
80297;SDS011;69599;52.622;9.230;2023-08-07T02:01:48;6.55;;;4.93;;
80297;SDS011;69599;52.622;9.230;2023-08-07T02:04:14;9.30;;;5.25;;
80297;SDS011;69599;52.622;9.230;2023-08-07T02:06:39;7.60;;;5.68;;
80297;SDS011;69599;52.622;9.230;2023-08-07T02:09:05;7.95;;;5.38;;
80297;SDS011;69599;52.622;9.230;2023-08-07T02:11:30;8.48;;;5.97;;
80297;SDS011;69599;52.622;9.230;2023-08-07T02:13:55;9.52;;;6.38;;
80297;SDS011;69599;52.622;9.230;2023-08-07T02:16:21;11.63;;;7.47;;
80297;SDS011;69599;52.622;9.230;2023-08-07T02:18:46;11.75;;;7.10;;
80297;SDS011;69599;52.622;9.230;2023-08-07T02:21:12;13.80;;;7.97;;
80297;SDS011;69599;52.622;9.230;2023-08-07T02:23:37;12.38;;;8.05;;
80297;SDS011;69599;52.622;9.230;2023-08-07T02:26:02;12.27;;;8.18;;
80297;SDS011;69599;52.622;9.230;2023-08-07T02:28:28;16.27;;;7.93;;
80297;SDS011;69599;52.622;9.230;2023-08-07T02:30:53;9.00;;;7.10;;
80297;SDS011;69599;52.622;9.230;2023-08-07T02:33:19;11.27;;;7.35;;
80297;SDS011;69599;52.622;9.230;2023-08-07T02:35:45;12.18;;;6.95;;
80297;SDS011;69599;52.622;9.230;2023-08-07T02:38:11;11.35;;;7.82;;
80297;SDS011;69599;52.622;9.230;2023-08-07T02:40:36;11.55;;;7.22;;
80297;SDS011;69599;52.622;9.230;2023-08-07T02:43:01;11.20;;;7.93;;
80297;SDS011;69599;52.622;9.230;2023-08-07T02:45:27;10.80;;;6.75;;
80297;SDS011;69599;52.622;9.230;2023-08-07T02:47:52;10.43;;;6.47;;
80297;SDS011;69599;52.622;9.230;2023-08-07T02:50:18;12.60;;;6.45;;
80297;SDS011;69599;52.622;9.230;2023-08-07T02:52:43;11.27;;;6.55;;
80297;SDS011;69599;52.622;9.230;2023-08-07T02:55:08;10.35;;;6.75;;
80297;SDS011;69599;52.622;9.230;2023-08-07T02:57:34;10.32;;;7.10;;
80297;SDS011;69599;52.622;9.230;2023-08-07T02:59:59;8.43;;;6.47;;
80297;SDS011;69599;52.622;9.230;2023-08-07T03:02:25;13.15;;;7.10;;
80297;SDS011;69599;52.622;9.230;2023-08-07T03:04:50;9.95;;;6.50;;
80297;SDS011;69599;52.622;9.230;2023-08-07T03:07:15;9.23;;;6.22;;
80297;SDS011;69599;52.622;9.230;2023-08-07T03:09:41;8.57;;;6.28;;
80297;SDS011;69599;52.622;9.230;2023-08-07T03:12:07;9.27;;;6.75;;
80297;SDS011;69599;52.622;9.230;2023-08-07T03:14:34;10.68;;;6.47;;
80297;SDS011;69599;52.622;9.230;2023-08-07T03:17:00;11.45;;;6.40;;
80297;SDS011;69599;52.622;9.230;2023-08-07T03:19:25;8.48;;;5.93;;
80297;SDS011;69599;52.622;9.230;2023-08-07T03:21:50;9.43;;;6.38;;
80297;SDS011;69599;52.622;9.230;2023-08-07T03:24:16;10.27;;;6.35;;
80297;SDS011;69599;52.622;9.230;2023-08-07T03:26:41;10.25;;;6.60;;
80297;SDS011;69599;52.622;9.230;2023-08-07T03:29:06;11.48;;;6.57;;
80297;SDS011;69599;52.622;9.230;2023-08-07T03:31:32;10.10;;;6.82;;
80297;SDS011;69599;52.622;9.230;2023-08-07T03:33:57;11.55;;;6.57;;
80297;SDS011;69599;52.622;9.230;2023-08-07T03:36:23;14.98;;;7.55;;
80297;SDS011;69599;52.622;9.230;2023-08-07T03:38:48;9.63;;;6.55;;
80297;SDS011;69599;52.622;9.230;2023-08-07T03:41:14;9.98;;;6.68;;
80297;SDS011;69599;52.622;9.230;2023-08-07T03:43:39;9.20;;;6.57;;
80297;SDS011;69599;52.622;9.230;2023-08-07T03:46:05;15.23;;;8.20;;
80297;SDS011;69599;52.622;9.230;2023-08-07T03:48:30;13.52;;;7.70;;
80297;SDS011;69599;52.622;9.230;2023-08-07T03:51:05;13.38;;;7.45;;
80297;SDS011;69599;52.622;9.230;2023-08-07T03:53:33;17.17;;;7.72;;
80297;SDS011;69599;52.622;9.230;2023-08-07T03:55:58;9.85;;;6.50;;
80297;SDS011;69599;52.622;9.230;2023-08-07T03:58:24;10.65;;;6.93;;
80297;SDS011;69599;52.622;9.230;2023-08-07T04:00:50;11.18;;;7.05;;
80297;SDS011;69599;52.622;9.230;2023-08-07T04:03:16;8.60;;;6.32;;
80297;SDS011;69599;52.622;9.230;2023-08-07T04:05:42;9.60;;;6.40;;
80297;SDS011;69599;52.622;9.230;2023-08-07T04:08:07;12.18;;;6.85;;
80297;SDS011;69599;52.622;9.230;2023-08-07T04:10:33;10.63;;;7.47;;
80297;SDS011;69599;52.622;9.230;2023-08-07T04:12:58;11.45;;;7.88;;
80297;SDS011;69599;52.622;9.230;2023-08-07T04:15:25;9.95;;;6.70;;
80297;SDS011;69599;52.622;9.230;2023-08-07T04:17:51;9.13;;;6.20;;
80297;SDS011;69599;52.622;9.230;2023-08-07T04:20:16;9.55;;;7.20;;
80297;SDS011;69599;52.622;9.230;2023-08-07T04:22:41;9.30;;;6.80;;
80297;SDS011;69599;52.622;9.230;2023-08-07T04:25:07;10.27;;;6.45;;
80297;SDS011;69599;52.622;9.230;2023-08-07T04:27:33;12.63;;;7.15;;
80297;SDS011;69599;52.622;9.230;2023-08-07T04:29:58;10.55;;;6.22;;
80297;SDS011;69599;52.622;9.230;2023-08-07T04:32:23;11.55;;;6.30;;
80297;SDS011;69599;52.622;9.230;2023-08-07T04:34:49;9.82;;;6.05;;
80297;SDS011;69599;52.622;9.230;2023-08-07T04:37:14;10.55;;;6.15;;
80297;SDS011;69599;52.622;9.230;2023-08-07T04:39:40;9.52;;;5.75;;
80297;SDS011;69599;52.622;9.230;2023-08-07T04:42:05;10.63;;;5.80;;
80297;SDS011;69599;52.622;9.230;2023-08-07T04:44:31;10.95;;;6.43;;
80297;SDS011;69599;52.622;9.230;2023-08-07T04:46:56;9.40;;;6.63;;
80297;SDS011;69599;52.622;9.230;2023-08-07T04:49:22;9.07;;;5.72;;
80297;SDS011;69599;52.622;9.230;2023-08-07T04:51:47;9.57;;;5.63;;
80297;SDS011;69599;52.622;9.230;2023-08-07T04:54:13;8.77;;;5.75;;
80297;SDS011;69599;52.622;9.230;2023-08-07T04:56:38;8.25;;;5.65;;
80297;SDS011;69599;52.622;9.230;2023-08-07T04:59:03;8.07;;;5.18;;
80297;SDS011;69599;52.622;9.230;2023-08-07T05:01:29;10.38;;;5.88;;
80297;SDS011;69599;52.622;9.230;2023-08-07T05:03:54;9.80;;;5.70;;
80297;SDS011;69599;52.622;9.230;2023-08-07T05:06:20;10.07;;;5.00;;
80297;SDS011;69599;52.622;9.230;2023-08-07T05:08:45;6.05;;;4.50;;
80297;SDS011;69599;52.622;9.230;2023-08-07T05:11:10;7.97;;;4.28;;
80297;SDS011;69599;52.622;9.230;2023-08-07T05:13:36;5.88;;;3.92;;
80297;SDS011;69599;52.622;9.230;2023-08-07T05:16:01;6.90;;;4.18;;
80297;SDS011;69599;52.622;9.230;2023-08-07T05:18:27;6.20;;;4.28;;
80297;SDS011;69599;52.622;9.230;2023-08-07T05:20:52;6.95;;;4.53;;
80297;SDS011;69599;52.622;9.230;2023-08-07T05:23:17;5.32;;;3.92;;
80297;SDS011;69599;52.622;9.230;2023-08-07T05:25:46;5.05;;;3.95;;
80297;SDS011;69599;52.622;9.230;2023-08-07T05:28:12;6.50;;;3.97;;
80297;SDS011;69599;52.622;9.230;2023-08-07T05:30:37;5.65;;;3.50;;
80297;SDS011;69599;52.622;9.230;2023-08-07T05:33:03;6.03;;;3.78;;
80297;SDS011;69599;52.622;9.230;2023-08-07T05:35:28;8.38;;;3.90;;
80297;SDS011;69599;52.622;9.230;2023-08-07T05:37:54;4.90;;;3.92;;
80297;SDS011;69599;52.622;9.230;2023-08-07T05:40:19;5.28;;;3.70;;
80297;SDS011;69599;52.622;9.230;2023-08-07T05:42:45;6.55;;;4.00;;
80297;SDS011;69599;52.622;9.230;2023-08-07T05:45:10;7.10;;;4.28;;
80297;SDS011;69599;52.622;9.230;2023-08-07T05:47:36;7.28;;;3.42;;
80297;SDS011;69599;52.622;9.230;2023-08-07T05:50:01;5.47;;;3.42;;
80297;SDS011;69599;52.622;9.230;2023-08-07T05:52:27;6.60;;;3.70;;
80297;SDS011;69599;52.622;9.230;2023-08-07T05:54:52;4.40;;;3.35;;
80297;SDS011;69599;52.622;9.230;2023-08-07T05:57:18;6.32;;;3.83;;
80297;SDS011;69599;52.622;9.230;2023-08-07T05:59:43;3.90;;;2.63;;
80297;SDS011;69599;52.622;9.230;2023-08-07T06:02:09;4.43;;;3.40;;
80297;SDS011;69599;52.622;9.230;2023-08-07T06:04:38;5.63;;;3.55;;
80297;SDS011;69599;52.622;9.230;2023-08-07T06:07:04;5.78;;;3.90;;
80297;SDS011;69599;52.622;9.230;2023-08-07T06:09:30;5.38;;;3.70;;
80297;SDS011;69599;52.622;9.230;2023-08-07T06:11:55;5.95;;;3.67;;
80297;SDS011;69599;52.622;9.230;2023-08-07T06:14:21;5.43;;;3.70;;
80297;SDS011;69599;52.622;9.230;2023-08-07T06:16:46;11.85;;;4.05;;
80297;SDS011;69599;52.622;9.230;2023-08-07T06:19:12;6.88;;;3.70;;
80297;SDS011;69599;52.622;9.230;2023-08-07T06:21:37;6.85;;;3.80;;
80297;SDS011;69599;52.622;9.230;2023-08-07T06:24:02;5.68;;;3.20;;
80297;SDS011;69599;52.622;9.230;2023-08-07T06:26:28;4.47;;;3.20;;
80297;SDS011;69599;52.622;9.230;2023-08-07T06:28:53;5.30;;;3.80;;
80297;SDS011;69599;52.622;9.230;2023-08-07T06:31:19;5.75;;;3.38;;
80297;SDS011;69599;52.622;9.230;2023-08-07T06:33:44;6.30;;;3.53;;
80297;SDS011;69599;52.622;9.230;2023-08-07T06:36:10;5.88;;;3.67;;
80297;SDS011;69599;52.622;9.230;2023-08-07T06:38:35;6.35;;;4.00;;
80297;SDS011;69599;52.622;9.230;2023-08-07T06:41:01;5.25;;;3.72;;
80297;SDS011;69599;52.622;9.230;2023-08-07T06:43:26;4.68;;;3.35;;
80297;SDS011;69599;52.622;9.230;2023-08-07T06:45:53;5.90;;;3.92;;
80297;SDS011;69599;52.622;9.230;2023-08-07T06:48:19;6.70;;;3.63;;
80297;SDS011;69599;52.622;9.230;2023-08-07T06:50:46;5.07;;;3.47;;
80297;SDS011;69599;52.622;9.230;2023-08-07T06:53:12;4.43;;;3.38;;
80297;SDS011;69599;52.622;9.230;2023-08-07T06:55:37;5.75;;;3.15;;
80297;SDS011;69599;52.622;9.230;2023-08-07T06:58:02;5.90;;;3.35;;
80297;SDS011;69599;52.622;9.230;2023-08-07T07:00:28;5.10;;;2.40;;
80297;SDS011;69599;52.622;9.230;2023-08-07T07:02:53;4.40;;;2.33;;
80297;SDS011;69599;52.622;9.230;2023-08-07T07:05:19;3.55;;;2.40;;
80297;SDS011;69599;52.622;9.230;2023-08-07T07:07:44;5.65;;;2.70;;
80297;SDS011;69599;52.622;9.230;2023-08-07T07:10:09;5.40;;;2.50;;
80297;SDS011;69599;52.622;9.230;2023-08-07T07:12:36;3.38;;;2.05;;
80297;SDS011;69599;52.622;9.230;2023-08-07T07:15:01;4.72;;;2.08;;
80297;SDS011;69599;52.622;9.230;2023-08-07T07:17:27;4.40;;;2.00;;
80297;SDS011;69599;52.622;9.230;2023-08-07T07:19:52;4.75;;;1.88;;
80297;SDS011;69599;52.622;9.230;2023-08-07T07:22:18;3.88;;;2.20;;
80297;SDS011;69599;52.622;9.230;2023-08-07T07:24:44;3.20;;;1.85;;
80297;SDS011;69599;52.622;9.230;2023-08-07T07:27:09;3.53;;;2.15;;
80297;SDS011;69599;52.622;9.230;2023-08-07T07:29:34;4.15;;;1.70;;
80297;SDS011;69599;52.622;9.230;2023-08-07T07:32:00;3.63;;;2.95;;
80297;SDS011;69599;52.622;9.230;2023-08-07T07:34:25;4.70;;;2.25;;
80297;SDS011;69599;52.622;9.230;2023-08-07T07:36:51;3.90;;;1.75;;
80297;SDS011;69599;52.622;9.230;2023-08-07T07:39:20;7.45;;;1.48;;
80297;SDS011;69599;52.622;9.230;2023-08-07T07:41:46;6.03;;;2.13;;
80297;SDS011;69599;52.622;9.230;2023-08-07T07:44:12;5.68;;;1.80;;
80297;SDS011;69599;52.622;9.230;2023-08-07T07:46:38;3.33;;;1.60;;
80297;SDS011;69599;52.622;9.230;2023-08-07T07:49:03;3.88;;;1.60;;
80297;SDS011;69599;52.622;9.230;2023-08-07T07:51:30;3.88;;;1.80;;
80297;SDS011;69599;52.622;9.230;2023-08-07T07:53:56;5.28;;;2.05;;
80297;SDS011;69599;52.622;9.230;2023-08-07T07:56:22;4.07;;;1.80;;
80297;SDS011;69599;52.622;9.230;2023-08-07T07:58:48;2.97;;;1.88;;
80297;SDS011;69599;52.622;9.230;2023-08-07T08:01:13;4.47;;;1.98;;
80297;SDS011;69599;52.622;9.230;2023-08-07T08:03:39;3.17;;;1.70;;
80297;SDS011;69599;52.622;9.230;2023-08-07T08:06:04;5.35;;;1.80;;
80297;SDS011;69599;52.622;9.230;2023-08-07T08:08:30;9.40;;;2.03;;
80297;SDS011;69599;52.622;9.230;2023-08-07T08:10:55;3.88;;;1.95;;
80297;SDS011;69599;52.622;9.230;2023-08-07T08:13:21;5.72;;;2.30;;
80297;SDS011;69599;52.622;9.230;2023-08-07T08:15:47;4.45;;;1.85;;
80297;SDS011;69599;52.622;9.230;2023-08-07T08:18:13;7.28;;;2.20;;
80297;SDS011;69599;52.622;9.230;2023-08-07T08:20:38;4.53;;;1.75;;
80297;SDS011;69599;52.622;9.230;2023-08-07T08:23:04;5.60;;;1.90;;
80297;SDS011;69599;52.622;9.230;2023-08-07T08:25:30;4.90;;;1.42;;
80297;SDS011;69599;52.622;9.230;2023-08-07T08:27:55;3.17;;;1.75;;
80297;SDS011;69599;52.622;9.230;2023-08-07T08:30:21;5.70;;;1.83;;
80297;SDS011;69599;52.622;9.230;2023-08-07T08:32:46;3.25;;;1.60;;
80297;SDS011;69599;52.622;9.230;2023-08-07T08:35:11;4.18;;;2.03;;
80297;SDS011;69599;52.622;9.230;2023-08-07T08:37:37;5.82;;;1.52;;
80297;SDS011;69599;52.622;9.230;2023-08-07T08:40:02;5.72;;;3.17;;
80297;SDS011;69599;52.622;9.230;2023-08-07T08:42:28;4.03;;;1.50;;
80297;SDS011;69599;52.622;9.230;2023-08-07T08:44:57;4.40;;;1.90;;
80297;SDS011;69599;52.622;9.230;2023-08-07T08:47:25;6.93;;;2.17;;
80297;SDS011;69599;52.622;9.230;2023-08-07T08:50:00;6.22;;;2.40;;
80297;SDS011;69599;52.622;9.230;2023-08-07T08:52:28;4.25;;;2.20;;
80297;SDS011;69599;52.622;9.230;2023-08-07T08:54:54;6.55;;;1.98;;
80297;SDS011;69599;52.622;9.230;2023-08-07T08:57:21;6.97;;;2.00;;
80297;SDS011;69599;52.622;9.230;2023-08-07T08:59:47;6.20;;;2.00;;
80297;SDS011;69599;52.622;9.230;2023-08-07T09:02:13;5.65;;;1.92;;
80297;SDS011;69599;52.622;9.230;2023-08-07T09:04:38;7.15;;;1.92;;
80297;SDS011;69599;52.622;9.230;2023-08-07T09:07:04;6.85;;;1.50;;
80297;SDS011;69599;52.622;9.230;2023-08-07T09:09:30;6.88;;;1.65;;
80297;SDS011;69599;52.622;9.230;2023-08-07T09:11:57;5.63;;;1.85;;
80297;SDS011;69599;52.622;9.230;2023-08-07T09:14:24;6.13;;;2.13;;
80297;SDS011;69599;52.622;9.230;2023-08-07T09:16:51;9.32;;;1.75;;
80297;SDS011;69599;52.622;9.230;2023-08-07T09:19:17;6.28;;;1.85;;
80297;SDS011;69599;52.622;9.230;2023-08-07T09:21:43;5.68;;;1.70;;
80297;SDS011;69599;52.622;9.230;2023-08-07T09:24:08;6.43;;;2.05;;
80297;SDS011;69599;52.622;9.230;2023-08-07T09:26:34;6.90;;;1.92;;
80297;SDS011;69599;52.622;9.230;2023-08-07T09:29:00;5.90;;;1.85;;
80297;SDS011;69599;52.622;9.230;2023-08-07T09:31:26;4.50;;;1.80;;
80297;SDS011;69599;52.622;9.230;2023-08-07T09:33:52;6.35;;;1.75;;
80297;SDS011;69599;52.622;9.230;2023-08-07T09:36:18;6.03;;;1.77;;
80297;SDS011;69599;52.622;9.230;2023-08-07T09:38:44;4.70;;;1.90;;
80297;SDS011;69599;52.622;9.230;2023-08-07T09:41:16;4.95;;;2.22;;
80297;SDS011;69599;52.622;9.230;2023-08-07T09:43:42;5.38;;;2.45;;
80297;SDS011;69599;52.622;9.230;2023-08-07T09:46:08;6.40;;;1.58;;
80297;SDS011;69599;52.622;9.230;2023-08-07T09:48:40;8.77;;;2.20;;
80297;SDS011;69599;52.622;9.230;2023-08-07T09:51:06;8.43;;;1.70;;
80297;SDS011;69599;52.622;9.230;2023-08-07T09:53:32;4.43;;;1.73;;
80297;SDS011;69599;52.622;9.230;2023-08-07T09:55:58;5.32;;;1.90;;
80297;SDS011;69599;52.622;9.230;2023-08-07T09:58:24;8.90;;;2.13;;
80297;SDS011;69599;52.622;9.230;2023-08-07T10:00:50;5.55;;;1.70;;
80297;SDS011;69599;52.622;9.230;2023-08-07T10:03:18;5.93;;;2.00;;
80297;SDS011;69599;52.622;9.230;2023-08-07T10:05:44;5.63;;;1.77;;
80297;SDS011;69599;52.622;9.230;2023-08-07T10:08:10;3.88;;;1.70;;
80297;SDS011;69599;52.622;9.230;2023-08-07T10:10:37;10.57;;;3.30;;
80297;SDS011;69599;52.622;9.230;2023-08-07T10:13:03;4.85;;;1.48;;
80297;SDS011;69599;52.622;9.230;2023-08-07T10:15:29;4.97;;;1.42;;
80297;SDS011;69599;52.622;9.230;2023-08-07T10:17:56;4.20;;;1.63;;
80297;SDS011;69599;52.622;9.230;2023-08-07T10:20:22;5.40;;;1.90;;
80297;SDS011;69599;52.622;9.230;2023-08-07T10:22:47;5.68;;;1.63;;
80297;SDS011;69599;52.622;9.230;2023-08-07T10:25:13;6.13;;;1.92;;
80297;SDS011;69599;52.622;9.230;2023-08-07T10:27:40;4.60;;;1.80;;
80297;SDS011;69599;52.622;9.230;2023-08-07T10:30:07;5.13;;;1.90;;
80297;SDS011;69599;52.622;9.230;2023-08-07T10:32:37;5.75;;;1.80;;
80297;SDS011;69599;52.622;9.230;2023-08-07T10:35:03;3.75;;;1.92;;
80297;SDS011;69599;52.622;9.230;2023-08-07T10:37:42;6.05;;;1.42;;
80297;SDS011;69599;52.622;9.230;2023-08-07T10:40:10;8.15;;;1.70;;
80297;SDS011;69599;52.622;9.230;2023-08-07T10:45:20;2.92;;;1.73;;
80297;SDS011;69599;52.622;9.230;2023-08-07T10:48:53;4.85;;;1.58;;
80297;SDS011;69599;52.622;9.230;2023-08-07T10:53:35;5.50;;;1.60;;
80297;SDS011;69599;52.622;9.230;2023-08-07T10:56:05;4.78;;;1.48;;
80297;SDS011;69599;52.622;9.230;2023-08-07T10:58:33;7.20;;;1.45;;
80297;SDS011;69599;52.622;9.230;2023-08-07T11:01:15;5.22;;;1.55;;
80297;SDS011;69599;52.622;9.230;2023-08-07T11:03:42;6.10;;;1.23;;
80297;SDS011;69599;52.622;9.230;2023-08-07T11:06:11;2.40;;;1.00;;
80297;SDS011;69599;52.622;9.230;2023-08-07T11:08:37;3.38;;;1.20;;
80297;SDS011;69599;52.622;9.230;2023-08-07T11:11:04;4.55;;;1.20;;
80297;SDS011;69599;52.622;9.230;2023-08-07T11:13:30;3.13;;;1.17;;
80297;SDS011;69599;52.622;9.230;2023-08-07T11:15:56;3.30;;;0.82;;
80297;SDS011;69599;52.622;9.230;2023-08-07T11:18:22;2.15;;;0.75;;
80297;SDS011;69599;52.622;9.230;2023-08-07T11:20:48;2.38;;;1.30;;
80297;SDS011;69599;52.622;9.230;2023-08-07T11:23:13;3.95;;;1.17;;
80297;SDS011;69599;52.622;9.230;2023-08-07T11:25:38;2.05;;;1.00;;
80297;SDS011;69599;52.622;9.230;2023-08-07T11:28:04;3.38;;;0.90;;
80297;SDS011;69599;52.622;9.230;2023-08-07T11:30:29;2.92;;;1.48;;
80297;SDS011;69599;52.622;9.230;2023-08-07T11:32:56;6.70;;;1.85;;
80297;SDS011;69599;52.622;9.230;2023-08-07T11:35:21;3.75;;;1.00;;
80297;SDS011;69599;52.622;9.230;2023-08-07T11:37:47;3.80;;;1.20;;
80297;SDS011;69599;52.622;9.230;2023-08-07T11:40:13;4.22;;;1.63;;
80297;SDS011;69599;52.622;9.230;2023-08-07T11:42:39;4.40;;;1.10;;
80297;SDS011;69599;52.622;9.230;2023-08-07T11:45:05;3.97;;;1.02;;
80297;SDS011;69599;52.622;9.230;2023-08-07T11:47:31;5.47;;;1.10;;
80297;SDS011;69599;52.622;9.230;2023-08-07T11:49:56;4.70;;;1.13;;
80297;SDS011;69599;52.622;9.230;2023-08-07T11:52:23;5.10;;;1.00;;
80297;SDS011;69599;52.622;9.230;2023-08-07T11:54:49;4.47;;;1.27;;
80297;SDS011;69599;52.622;9.230;2023-08-07T11:57:16;2.92;;;1.08;;
80297;SDS011;69599;52.622;9.230;2023-08-07T11:59:43;5.28;;;1.10;;
80297;SDS011;69599;52.622;9.230;2023-08-07T12:02:12;2.08;;;0.93;;
80297;SDS011;69599;52.622;9.230;2023-08-07T12:04:37;5.63;;;1.23;;
80297;SDS011;69599;52.622;9.230;2023-08-07T12:07:03;4.53;;;1.00;;
80297;SDS011;69599;52.622;9.230;2023-08-07T12:09:29;3.35;;;1.00;;
80297;SDS011;69599;52.622;9.230;2023-08-07T12:11:56;3.05;;;1.17;;
80297;SDS011;69599;52.622;9.230;2023-08-07T12:14:22;3.75;;;1.05;;
80297;SDS011;69599;52.622;9.230;2023-08-07T12:16:48;5.65;;;1.20;;
80297;SDS011;69599;52.622;9.230;2023-08-07T12:19:15;3.33;;;1.10;;
80297;SDS011;69599;52.622;9.230;2023-08-07T12:21:41;10.30;;;2.92;;
80297;SDS011;69599;52.622;9.230;2023-08-07T12:24:07;7.43;;;1.90;;
80297;SDS011;69599;52.622;9.230;2023-08-07T12:26:32;4.90;;;1.20;;
80297;SDS011;69599;52.622;9.230;2023-08-07T12:28:58;4.20;;;1.45;;
80297;SDS011;69599;52.622;9.230;2023-08-07T12:31:23;5.75;;;1.38;;
80297;SDS011;69599;52.622;9.230;2023-08-07T12:33:49;3.95;;;1.25;;
80297;SDS011;69599;52.622;9.230;2023-08-07T12:36:14;5.20;;;1.65;;
80297;SDS011;69599;52.622;9.230;2023-08-07T12:38:40;6.07;;;1.65;;
80297;SDS011;69599;52.622;9.230;2023-08-07T12:41:06;5.72;;;2.20;;
80297;SDS011;69599;52.622;9.230;2023-08-07T12:43:31;3.95;;;1.15;;
80297;SDS011;69599;52.622;9.230;2023-08-07T12:45:56;3.65;;;1.30;;
80297;SDS011;69599;52.622;9.230;2023-08-07T12:48:23;6.78;;;1.40;;
80297;SDS011;69599;52.622;9.230;2023-08-07T12:50:51;5.38;;;1.30;;
80297;SDS011;69599;52.622;9.230;2023-08-07T12:53:16;7.38;;;1.90;;
80297;SDS011;69599;52.622;9.230;2023-08-07T12:55:42;4.93;;;1.20;;
80297;SDS011;69599;52.622;9.230;2023-08-07T12:58:07;5.53;;;1.23;;
80297;SDS011;69599;52.622;9.230;2023-08-07T13:00:33;3.83;;;1.35;;
80297;SDS011;69599;52.622;9.230;2023-08-07T13:02:58;4.85;;;1.40;;
80297;SDS011;69599;52.622;9.230;2023-08-07T13:05:24;4.70;;;1.55;;
80297;SDS011;69599;52.622;9.230;2023-08-07T13:07:49;6.43;;;1.40;;
80297;SDS011;69599;52.622;9.230;2023-08-07T13:10:18;4.40;;;1.60;;
80297;SDS011;69599;52.622;9.230;2023-08-07T13:12:44;6.68;;;1.70;;
80297;SDS011;69599;52.622;9.230;2023-08-07T13:15:13;5.35;;;2.20;;
80297;SDS011;69599;52.622;9.230;2023-08-07T13:17:39;3.15;;;1.23;;
80297;SDS011;69599;52.622;9.230;2023-08-07T13:20:06;4.57;;;1.90;;
80297;SDS011;69599;52.622;9.230;2023-08-07T13:22:36;5.03;;;1.20;;
80297;SDS011;69599;52.622;9.230;2023-08-07T13:25:02;4.88;;;1.33;;
80297;SDS011;69599;52.622;9.230;2023-08-07T13:27:28;5.80;;;1.58;;
80297;SDS011;69599;52.622;9.230;2023-08-07T13:29:55;5.65;;;1.17;;
80297;SDS011;69599;52.622;9.230;2023-08-07T13:32:20;3.67;;;1.42;;
80297;SDS011;69599;52.622;9.230;2023-08-07T13:34:46;5.50;;;1.40;;
80297;SDS011;69599;52.622;9.230;2023-08-07T13:37:11;5.47;;;1.52;;
80297;SDS011;69599;52.622;9.230;2023-08-07T13:39:38;4.70;;;1.42;;
80297;SDS011;69599;52.622;9.230;2023-08-07T13:42:03;3.53;;;1.42;;
80297;SDS011;69599;52.622;9.230;2023-08-07T13:44:28;5.43;;;1.65;;
80297;SDS011;69599;52.622;9.230;2023-08-07T13:46:54;4.13;;;1.65;;
80297;SDS011;69599;52.622;9.230;2023-08-07T13:49:20;4.45;;;1.60;;
80297;SDS011;69599;52.622;9.230;2023-08-07T13:51:46;5.88;;;1.35;;
80297;SDS011;69599;52.622;9.230;2023-08-07T13:54:12;5.78;;;1.77;;
80297;SDS011;69599;52.622;9.230;2023-08-07T13:56:37;5.72;;;1.45;;
80297;SDS011;69599;52.622;9.230;2023-08-07T13:59:03;6.57;;;1.55;;
80297;SDS011;69599;52.622;9.230;2023-08-07T14:01:28;4.15;;;1.60;;
80297;SDS011;69599;52.622;9.230;2023-08-07T14:03:54;5.47;;;1.38;;
80297;SDS011;69599;52.622;9.230;2023-08-07T14:06:19;4.18;;;2.53;;
80297;SDS011;69599;52.622;9.230;2023-08-07T14:08:45;9.18;;;1.80;;
80297;SDS011;69599;52.622;9.230;2023-08-07T14:11:11;7.47;;;1.77;;
80297;SDS011;69599;52.622;9.230;2023-08-07T14:13:39;5.10;;;1.48;;
80297;SDS011;69599;52.622;9.230;2023-08-07T14:16:05;9.65;;;2.22;;
80297;SDS011;69599;52.622;9.230;2023-08-07T14:18:30;6.35;;;1.52;;
80297;SDS011;69599;52.622;9.230;2023-08-07T14:20:55;5.88;;;1.30;;
80297;SDS011;69599;52.622;9.230;2023-08-07T14:23:21;5.85;;;1.58;;
80297;SDS011;69599;52.622;9.230;2023-08-07T14:25:46;3.85;;;1.27;;
80297;SDS011;69599;52.622;9.230;2023-08-07T14:28:15;3.92;;;1.38;;
80297;SDS011;69599;52.622;9.230;2023-08-07T14:30:41;4.47;;;1.27;;
80297;SDS011;69599;52.622;9.230;2023-08-07T14:33:06;4.25;;;1.50;;
80297;SDS011;69599;52.622;9.230;2023-08-07T14:35:32;5.15;;;1.35;;
80297;SDS011;69599;52.622;9.230;2023-08-07T14:37:57;4.75;;;1.30;;
80297;SDS011;69599;52.622;9.230;2023-08-07T14:40:22;6.70;;;1.40;;
80297;SDS011;69599;52.622;9.230;2023-08-07T14:42:48;4.05;;;1.25;;
80297;SDS011;69599;52.622;9.230;2023-08-07T14:45:13;3.42;;;1.00;;
80297;SDS011;69599;52.622;9.230;2023-08-07T14:47:40;3.53;;;1.20;;
80297;SDS011;69599;52.622;9.230;2023-08-07T14:50:06;5.00;;;1.33;;